createdAt,value
2018-01-11T00:01:23.881Z,21.08
2018-01-11T00:03:56.949Z,20.17
2018-01-11T00:06:30.988Z,21.20
2018-01-11T00:09:03.106Z,23.45
2018-01-11T00:11:32.952Z,23.02
2018-01-11T00:14:02.572Z,22.13
2018-01-11T00:16:34.855Z,21.92
2018-01-11T00:19:05.427Z,23.62
2018-01-11T00:21:38.515Z,23.30
2018-01-11T00:24:09.126Z,23.42
2018-01-11T00:26:36.630Z,23.38
2018-01-11T00:29:04.147Z,24.05
2018-01-11T00:31:31.642Z,25.00
2018-01-11T00:33:59.498Z,23.65
2018-01-11T00:36:27.597Z,25.17
2018-01-11T00:38:55.137Z,21.92
2018-01-11T00:41:23.378Z,22.33
2018-01-11T00:43:51.633Z,22.52
2018-01-11T00:46:19.889Z,23.20
2018-01-11T00:48:49.475Z,22.90
2018-01-11T00:51:16.989Z,23.10
2018-01-11T00:53:46.778Z,22.95
2018-01-11T00:56:17.906Z,23.52
2018-01-11T00:58:45.386Z,22.15
2018-01-11T01:01:14.591Z,25.35
2018-01-11T01:03:42.091Z,22.48
2018-01-11T01:06:09.578Z,24.20
2018-01-11T01:08:39.686Z,24.65
2018-01-11T01:11:07.946Z,21.02
2018-01-11T01:13:38.189Z,22.77
2018-01-11T01:16:08.314Z,23.58
2018-01-11T01:18:35.799Z,22.25
2018-01-11T01:21:04.579Z,21.05
2018-01-11T01:23:32.895Z,21.35
2018-01-11T01:26:01.395Z,21.17
2018-01-11T01:28:29.736Z,23.48
2018-01-11T01:30:58.828Z,22.33
2018-01-11T01:33:27.610Z,23.55
2018-01-11T01:35:57.590Z,23.83
2018-01-11T01:38:26.862Z,22.48
2018-01-11T01:40:55.454Z,24.23
2018-01-11T01:43:26.287Z,22.35
2018-01-11T01:45:54.655Z,22.27
2018-01-11T01:48:34.694Z,22.77
2018-01-11T01:51:02.222Z,24.60
2018-01-11T01:53:30.506Z,22.08
2018-01-11T01:56:01.471Z,22.27
2018-01-11T01:58:30.193Z,23.52
2018-01-11T02:00:59.403Z,22.87
2018-01-11T02:03:28.233Z,22.23
2018-01-11T02:05:59.207Z,22.33
2018-01-11T02:08:27.938Z,21.48
2018-01-11T02:10:55.426Z,23.35
2018-01-11T02:13:23.538Z,22.48
2018-01-11T02:15:51.028Z,22.20
2018-01-11T02:18:20.370Z,23.40
2018-01-11T02:20:48.763Z,21.33
2018-01-11T02:23:16.578Z,21.95
2018-01-11T02:25:46.227Z,22.75
2018-01-11T02:28:16.637Z,22.77
2018-01-11T02:30:44.480Z,22.65
2018-01-11T02:33:12.747Z,24.50
2018-01-11T02:35:40.409Z,21.50
2018-01-11T02:38:11.323Z,21.30
2018-01-11T02:40:42.033Z,23.87
2018-01-11T02:43:09.787Z,22.75
2018-01-11T02:45:39.401Z,23.40
2018-01-11T02:48:07.789Z,23.55
2018-01-11T02:50:35.358Z,21.35
2018-01-11T02:53:03.417Z,20.92
2018-01-11T02:55:31.510Z,21.62
2018-01-11T02:57:59.780Z,23.30
2018-01-11T03:00:29.970Z,22.48
2018-01-11T03:03:00.938Z,24.40
2018-01-11T03:05:29.014Z,22.60
2018-01-11T03:08:00.295Z,22.27
2018-01-11T03:10:27.817Z,23.50
2018-01-11T03:12:55.874Z,21.23
2018-01-11T03:15:23.406Z,22.40
2018-01-11T03:17:51.610Z,22.52
2018-01-11T03:20:19.782Z,23.60
2018-01-11T03:22:48.577Z,23.62
2018-01-11T03:25:17.577Z,22.23
2018-01-11T03:27:45.068Z,23.08
2018-01-11T03:30:12.554Z,21.83
2018-01-11T03:32:40.135Z,21.33
2018-01-11T03:35:08.769Z,21.12
2018-01-11T03:37:38.400Z,23.25
2018-01-11T03:40:07.390Z,21.90
2018-01-11T03:42:35.637Z,21.48
2018-01-11T03:45:03.787Z,22.87
2018-01-11T03:47:34.689Z,22.05
2018-01-11T03:50:02.190Z,21.60
2018-01-11T03:52:32.306Z,21.48
2018-01-11T03:54:59.806Z,24.73
2018-01-11T03:57:28.999Z,22.30
2018-01-11T03:59:57.250Z,21.30
2018-01-11T04:02:26.133Z,21.17
2018-01-11T04:04:56.812Z,23.67
2018-01-11T04:07:25.030Z,21.05
2018-01-11T04:09:54.684Z,20.90
2018-01-11T04:12:22.219Z,22.20
2018-01-11T04:14:49.702Z,22.95
2018-01-11T04:17:18.119Z,24.15
2018-01-11T04:19:46.229Z,24.37
2018-01-11T04:22:13.822Z,24.23
2018-01-11T04:24:44.351Z,23.75
2018-01-11T04:27:13.294Z,24.45
2018-01-11T04:29:42.542Z,25.60
2018-01-11T04:32:11.798Z,24.95
2018-01-11T04:34:39.286Z,22.50
2018-01-11T04:37:07.326Z,23.40
2018-01-11T04:39:35.514Z,22.90
2018-01-11T04:42:04.441Z,21.37
2018-01-11T04:44:32.857Z,23.60
2018-01-11T04:47:00.358Z,23.12
2018-01-11T04:49:28.355Z,21.58
2018-01-11T04:51:56.446Z,19.20
2018-01-11T04:54:27.438Z,19.73
2018-01-11T04:56:55.024Z,19.98
2018-01-11T04:59:23.236Z,21.48
2018-01-11T05:01:50.744Z,20.52
2018-01-11T05:04:18.240Z,20.17
2018-01-11T05:06:46.103Z,18.73
2018-01-11T05:09:13.773Z,19.12
2018-01-11T05:11:41.313Z,19.75
2018-01-11T05:14:08.871Z,18.77
2018-01-11T05:16:37.310Z,19.20
2018-01-11T05:19:04.827Z,17.50
2018-01-11T05:21:33.050Z,18.00
2018-01-11T05:24:00.556Z,17.95
2018-01-11T05:26:28.190Z,19.73
2018-01-11T05:28:58.139Z,18.70
2018-01-11T05:31:26.470Z,19.67
2018-01-11T05:33:56.710Z,19.85
2018-01-11T05:36:26.241Z,19.08
2018-01-11T05:38:54.077Z,20.98
2018-01-11T05:41:24.042Z,18.17
2018-01-11T05:43:52.207Z,18.58
2018-01-11T05:46:21.339Z,17.67
2018-01-11T05:48:51.317Z,19.90
2018-01-11T05:51:20.970Z,20.10
2018-01-11T05:53:49.347Z,20.65
2018-01-11T05:56:16.835Z,19.95
2018-01-11T05:58:47.699Z,19.15
2018-01-11T06:01:16.126Z,20.00
2018-01-11T06:03:44.398Z,19.75
2018-01-11T06:06:13.112Z,18.30
2018-01-11T06:08:42.674Z,19.33
2018-01-11T06:11:10.162Z,18.40
2018-01-11T06:13:39.230Z,19.30
2018-01-11T06:16:06.706Z,18.83
2018-01-11T06:18:36.890Z,18.98
2018-01-11T06:21:04.445Z,20.15
2018-01-11T06:23:32.650Z,20.48
2018-01-11T06:26:00.147Z,20.10
2018-01-11T06:28:27.956Z,19.25
2018-01-11T06:30:58.372Z,20.27
2018-01-11T06:33:30.380Z,17.98
2018-01-11T06:35:59.880Z,18.42
2018-01-11T06:38:29.843Z,19.02
2018-01-11T06:40:58.823Z,18.92
2018-01-11T06:43:28.022Z,18.77
2018-01-11T06:45:57.998Z,17.48
2018-01-11T06:48:26.904Z,18.92
2018-01-11T06:50:56.659Z,19.10
2018-01-11T06:53:27.718Z,20.05
2018-01-11T06:55:56.919Z,20.05
2018-01-11T06:58:26.483Z,19.75
2018-01-11T07:00:59.068Z,19.25
2018-01-11T07:03:27.376Z,18.25
2018-01-11T07:05:54.863Z,19.30
2018-01-11T07:08:24.778Z,18.00
2018-01-11T07:10:56.642Z,17.70
2018-01-11T07:13:31.815Z,18.67
2018-01-11T07:16:00.546Z,16.70
2018-01-11T07:18:29.131Z,17.62
2018-01-11T07:20:57.819Z,17.70
2018-01-11T07:23:30.616Z,17.05
2018-01-11T07:26:01.285Z,17.02
2018-01-11T07:28:29.250Z,18.98
2018-01-11T07:30:58.330Z,18.05
2018-01-11T07:33:25.852Z,19.05
2018-01-11T07:35:53.442Z,17.80
2018-01-11T07:38:23.721Z,18.12
2018-01-11T07:40:51.210Z,19.33
2018-01-11T07:43:21.134Z,20.02
2018-01-11T07:45:49.593Z,20.10
2018-01-11T07:48:17.103Z,19.33
2018-01-11T07:50:47.448Z,20.55
2018-01-11T07:53:15.828Z,20.60
2018-01-11T07:55:44.993Z,20.73
2018-01-11T07:58:18.775Z,22.35
2018-01-11T08:00:49.663Z,22.65
2018-01-11T08:03:19.767Z,20.95
2018-01-11T08:05:48.806Z,20.45
2018-01-11T08:08:19.540Z,21.25
2018-01-11T08:10:56.957Z,22.30
2018-01-11T08:13:24.522Z,21.37
2018-01-11T08:15:53.328Z,21.62
2018-01-11T08:18:21.286Z,25.55
2018-01-11T08:20:48.803Z,23.48
2018-01-11T08:23:16.297Z,24.42
2018-01-11T08:25:45.015Z,23.38
2018-01-11T08:28:13.400Z,23.77
2018-01-11T08:30:46.500Z,23.77
2018-01-11T08:33:17.528Z,22.80
2018-01-11T08:35:46.450Z,25.73
2018-01-11T08:38:17.150Z,23.45
2018-01-11T08:40:45.658Z,22.58
2018-01-11T08:43:14.644Z,23.02
2018-01-11T08:45:42.173Z,25.02
2018-01-11T08:48:10.606Z,23.67
2018-01-11T08:50:38.458Z,22.35
2018-01-11T08:53:09.475Z,22.70
2018-01-11T08:55:37.533Z,23.00
2018-01-11T08:58:06.422Z,25.00
2018-01-11T09:00:34.945Z,23.77
2018-01-11T09:03:02.516Z,23.83
2018-01-11T09:05:32.491Z,22.55
2018-01-11T09:08:01.333Z,24.55
2018-01-11T09:10:29.767Z,24.67
2018-01-11T09:12:57.282Z,22.08
2018-01-11T09:15:24.988Z,22.50
2018-01-11T09:17:53.571Z,22.05
2018-01-11T09:20:21.563Z,22.00
2018-01-11T09:22:50.541Z,21.70
2018-01-11T09:25:18.711Z,22.75
2018-01-11T09:27:46.682Z,21.48
2018-01-11T09:30:15.160Z,21.95
2018-01-11T09:32:43.965Z,21.73
2018-01-11T09:35:12.143Z,23.35
2018-01-11T09:37:44.525Z,22.60
2018-01-11T09:40:13.750Z,21.92
2018-01-11T09:42:42.514Z,23.87
2018-01-11T09:45:10.406Z,22.23
2018-01-11T09:47:38.525Z,21.30
2018-01-11T09:50:07.535Z,22.35
2018-01-11T09:52:36.743Z,21.10
2018-01-11T09:55:05.096Z,22.47
2018-01-11T09:57:32.764Z,21.75
2018-01-11T10:00:01.118Z,23.40
2018-01-11T10:02:30.054Z,21.20
2018-01-11T10:04:57.588Z,20.70
2018-01-11T10:07:25.149Z,21.93
2018-01-11T10:09:53.586Z,21.75
2018-01-11T10:12:21.730Z,21.37
2018-01-11T10:14:51.111Z,21.48
2018-01-11T10:17:19.562Z,21.23
2018-01-11T10:19:47.038Z,22.25
2018-01-11T10:22:15.629Z,23.23
2018-01-11T10:24:43.185Z,20.93
2018-01-11T10:27:12.873Z,20.50
2018-01-11T10:29:41.175Z,22.63
2018-01-11T10:32:09.126Z,20.90
2018-01-11T10:34:36.631Z,21.13
2018-01-11T10:37:04.118Z,22.23
2018-01-11T10:39:32.530Z,22.90
2018-01-11T10:42:01.487Z,22.00
2018-01-11T10:44:30.766Z,22.30
2018-01-11T10:47:00.663Z,22.33
2018-01-11T10:49:28.943Z,20.90
2018-01-11T10:51:56.771Z,19.80
2018-01-11T10:54:27.378Z,22.57
2018-01-11T10:56:55.711Z,20.80
2018-01-11T10:59:23.258Z,21.77
2018-01-11T11:01:58.091Z,20.07
2018-01-11T11:04:25.979Z,21.27
2018-01-11T11:06:54.202Z,21.40
2018-01-11T11:09:23.072Z,23.03
2018-01-11T11:11:52.691Z,22.23
2018-01-11T11:14:22.530Z,25.40
2018-01-11T11:16:51.426Z,22.25
2018-01-11T11:19:20.316Z,24.15
2018-01-11T11:21:49.361Z,24.17
2018-01-11T11:24:19.839Z,22.93
2018-01-11T11:26:47.990Z,23.20
2018-01-11T11:29:16.778Z,23.80
2018-01-11T11:31:44.966Z,23.20
2018-01-11T11:34:13.991Z,24.87
2018-01-11T11:36:45.204Z,23.73
2018-01-11T11:39:12.954Z,23.60
2018-01-11T11:41:40.554Z,22.67
2018-01-11T11:44:09.938Z,24.43
2018-01-11T11:46:37.474Z,21.67
2018-01-11T11:49:05.046Z,23.40
2018-01-11T11:51:34.719Z,22.60
2018-01-11T11:54:03.094Z,23.17
2018-01-11T11:56:30.582Z,22.60
2018-01-11T11:58:58.073Z,24.23
2018-01-11T12:01:27.295Z,25.30
2018-01-11T12:03:55.730Z,24.47
2018-01-11T12:06:24.018Z,23.83
2018-01-11T12:08:53.687Z,25.00
2018-01-11T12:11:21.190Z,22.63
2018-01-11T12:13:51.100Z,24.33
2018-01-11T12:16:19.736Z,22.83
2018-01-11T12:18:48.985Z,23.43
2018-01-11T12:21:21.616Z,25.77
2018-01-11T12:23:49.663Z,23.50
2018-01-11T12:26:18.464Z,22.23
2018-01-11T12:28:46.720Z,23.53
2018-01-11T12:31:16.974Z,24.03
2018-01-11T12:33:45.574Z,24.70
2018-01-11T12:36:13.941Z,21.50
2018-01-11T12:38:43.090Z,24.77
2018-01-11T12:41:10.908Z,24.17
2018-01-11T12:43:41.672Z,23.90
2018-01-11T12:46:11.946Z,22.43
2018-01-11T12:48:41.409Z,26.00
2018-01-11T12:51:09.509Z,25.80
2018-01-11T12:53:37.592Z,23.57
2018-01-11T12:56:05.082Z,26.20
2018-01-11T12:58:35.597Z,24.67
2018-01-11T13:01:05.399Z,24.13
2018-01-11T13:03:34.288Z,24.80
2018-01-11T13:06:02.109Z,24.20
2018-01-11T13:08:32.810Z,24.63
2018-01-11T13:11:01.881Z,22.83
2018-01-11T13:13:31.063Z,25.47
2018-01-11T13:15:58.562Z,24.07
2018-01-11T13:18:26.490Z,27.00
2018-01-11T13:20:54.478Z,26.10
2018-01-11T13:23:23.381Z,27.90
2018-01-11T13:25:52.129Z,28.30
2018-01-11T13:28:21.378Z,27.10
2018-01-11T13:30:49.470Z,27.53
2018-01-11T13:33:16.956Z,29.20
2018-01-11T13:35:45.213Z,29.43
2018-01-11T13:38:12.994Z,25.87
2018-01-11T13:40:43.709Z,27.37
2018-01-11T13:43:11.734Z,27.73
2018-01-11T13:45:39.605Z,26.80
2018-01-11T13:48:07.478Z,26.17
2018-01-11T13:50:35.782Z,28.38
2018-01-11T13:53:03.354Z,27.27
2018-01-11T13:55:32.926Z,26.83
2018-01-11T13:58:00.455Z,27.25
2018-01-11T14:00:30.563Z,27.67
2018-01-11T14:02:59.379Z,28.67
2018-01-11T14:05:26.945Z,29.87
2018-01-11T14:07:54.911Z,27.00
2018-01-11T14:10:24.334Z,24.57
2018-01-11T14:12:51.861Z,28.73
2018-01-11T14:15:19.620Z,26.13
2018-01-11T14:17:47.897Z,27.70
2018-01-11T14:20:16.068Z,24.70
2018-01-11T14:22:44.483Z,25.33
2018-01-11T14:25:12.662Z,26.47
2018-01-11T14:27:43.953Z,26.77
2018-01-11T14:30:12.230Z,25.00
2018-01-11T14:32:42.597Z,24.43
2018-01-11T14:35:10.112Z,25.50
2018-01-11T14:37:38.940Z,25.73
2018-01-11T14:40:11.663Z,24.50
2018-01-11T14:42:40.194Z,23.27
2018-01-11T14:45:10.108Z,24.93
2018-01-11T14:47:39.788Z,26.20
2018-01-11T14:50:08.047Z,22.80
2018-01-11T14:52:38.243Z,23.13
2018-01-11T14:55:09.119Z,24.67
2018-01-11T14:57:40.424Z,25.02
2018-01-11T15:00:08.511Z,24.17
2018-01-11T15:02:36.949Z,25.50
2018-01-11T15:05:05.324Z,24.05
2018-01-11T15:07:33.738Z,24.12
2018-01-11T15:10:06.208Z,24.10
2018-01-11T15:12:35.074Z,25.70
2018-01-11T15:15:02.697Z,27.25
2018-01-11T15:17:31.958Z,25.40
2018-01-11T15:19:59.778Z,25.70
2018-01-11T15:22:28.896Z,26.60
2018-01-11T15:24:57.611Z,26.87
2018-01-11T15:27:25.661Z,25.62
2018-01-11T15:29:53.863Z,25.98
2018-01-11T15:32:25.669Z,27.87
2018-01-11T15:34:55.834Z,26.40
2018-01-11T15:37:25.047Z,22.67
2018-01-11T15:39:57.335Z,25.20
2018-01-11T15:42:25.614Z,24.70
2018-01-11T15:44:58.311Z,26.30
2018-01-11T15:47:27.906Z,22.75
2018-01-11T15:49:55.492Z,22.83
2018-01-11T15:52:28.084Z,23.20
2018-01-11T15:54:56.934Z,23.20
2018-01-11T15:57:26.956Z,23.23
2018-01-11T15:59:56.449Z,23.85
2018-01-11T16:02:26.866Z,23.50
2018-01-11T16:04:55.216Z,24.63
2018-01-11T16:07:24.406Z,22.62
2018-01-11T16:12:26.575Z,24.00
2018-01-11T16:14:55.475Z,22.87
2018-01-11T16:17:23.352Z,23.40
2018-01-11T16:19:52.379Z,25.40
2018-01-11T16:22:19.934Z,24.73
2018-01-11T16:24:47.559Z,25.17
2018-01-11T16:27:17.797Z,25.17
2018-01-11T16:29:46.164Z,24.60
2018-01-11T16:32:13.663Z,25.75
2018-01-11T16:34:41.573Z,25.35
2018-01-11T16:37:10.808Z,25.33
2018-01-11T16:39:39.202Z,27.08
2018-01-11T16:42:07.549Z,23.67
2018-01-11T16:44:40.652Z,24.90
2018-01-11T16:47:09.872Z,25.95
2018-01-11T16:49:40.631Z,27.67
2018-01-11T16:52:10.305Z,26.00
2018-01-11T16:54:41.010Z,28.38
2018-01-11T16:57:13.051Z,27.37
2018-01-11T16:59:43.094Z,27.65
2018-01-11T17:02:15.527Z,28.95
2018-01-11T17:04:44.764Z,33.65
2018-01-11T17:07:15.882Z,30.65
2018-01-11T17:09:44.194Z,30.20
2018-01-11T17:12:14.179Z,34.03
2018-01-11T17:14:42.798Z,33.40
2018-01-11T17:17:10.296Z,31.30
2018-01-11T17:19:39.583Z,33.80
2018-01-11T17:22:07.070Z,32.97
2018-01-11T17:24:35.343Z,34.78
2018-01-11T17:27:04.561Z,34.13
2018-01-11T17:29:34.566Z,36.03
2018-01-11T17:32:03.766Z,33.85
2018-01-11T17:34:32.547Z,37.95
2018-01-11T17:37:00.118Z,36.22
2018-01-11T17:39:29.103Z,36.78
2018-01-11T17:41:58.176Z,38.95
2018-01-11T17:44:25.701Z,37.35
2018-01-11T17:46:53.215Z,37.42
2018-01-11T17:49:22.888Z,38.40
2018-01-11T17:51:51.814Z,36.85
2018-01-11T17:54:20.252Z,41.88
2018-01-11T17:56:49.418Z,41.90
2018-01-11T17:59:17.386Z,41.65
2018-01-11T18:01:45.549Z,39.53
2018-01-11T18:04:13.667Z,42.38
2018-01-11T18:06:42.462Z,41.15
2018-01-11T18:09:10.634Z,43.42
2018-01-11T18:11:40.647Z,41.20
2018-01-11T18:14:10.654Z,41.22
2018-01-11T18:16:39.078Z,39.05
2018-01-11T18:19:07.134Z,39.03
2018-01-11T18:21:36.288Z,40.65
2018-01-11T18:24:04.692Z,42.70
2018-01-11T18:26:32.211Z,41.00
2018-01-11T18:29:01.570Z,41.35
2018-01-11T18:31:32.690Z,39.08
2018-01-11T18:34:03.023Z,37.90
2018-01-11T18:36:32.573Z,39.67
2018-01-11T18:39:00.259Z,40.03
2018-01-11T18:41:32.689Z,40.47
2018-01-11T18:46:39.191Z,41.27
2018-01-11T18:49:07.520Z,36.75
2018-01-11T18:51:38.458Z,39.28
2018-01-11T18:54:07.760Z,37.47
2018-01-11T18:56:35.294Z,40.50
2018-01-11T18:59:04.191Z,38.70
2018-01-11T19:01:32.930Z,40.28
2018-01-11T19:04:00.794Z,39.92
2018-01-11T19:06:28.298Z,39.95
2018-01-11T19:08:56.909Z,39.92
2018-01-11T19:11:26.075Z,40.75
2018-01-11T19:13:53.989Z,43.33
2018-01-11T19:16:22.356Z,43.63
2018-01-11T19:18:49.898Z,44.60
2018-01-11T19:21:18.238Z,43.75
2018-01-11T19:23:46.263Z,46.40
2018-01-11T19:26:17.946Z,45.85
2018-01-11T19:28:45.639Z,45.47
2018-01-11T19:31:15.600Z,44.00
2018-01-11T19:33:44.983Z,45.17
2018-01-11T19:36:19.070Z,44.17
2018-01-11T19:38:47.698Z,47.05
2018-01-11T19:41:15.326Z,43.55
2018-01-11T19:43:43.891Z,48.28
2018-01-11T19:46:12.706Z,45.58
2018-01-11T19:48:41.478Z,46.17
2018-01-11T19:51:09.801Z,46.17
2018-01-11T19:53:37.338Z,48.70
2018-01-11T19:56:05.775Z,47.47
2018-01-11T19:58:33.296Z,46.75
2018-01-11T20:01:04.114Z,46.70
2018-01-11T20:03:32.589Z,46.08
2018-01-11T20:06:00.146Z,47.90
2018-01-11T20:08:29.858Z,45.45
2018-01-11T20:10:59.102Z,46.08
2018-01-11T20:13:28.354Z,46.03
2018-01-11T20:15:56.890Z,47.85
2018-01-11T20:18:28.054Z,46.83
2018-01-11T20:20:56.422Z,46.53
2018-01-11T20:23:25.639Z,50.05
2018-01-11T20:25:54.758Z,48.05
2018-01-11T20:28:23.070Z,48.67
2018-01-11T20:30:52.675Z,48.40
2018-01-11T20:33:20.406Z,48.30
2018-01-11T20:35:48.692Z,47.80
2018-01-11T20:38:16.768Z,49.58
2018-01-11T20:40:44.316Z,47.67
2018-01-11T20:43:12.639Z,48.20
2018-01-11T20:45:41.842Z,47.90
2018-01-11T20:48:11.082Z,45.75
2018-01-11T20:50:39.998Z,48.83
2018-01-11T20:53:07.989Z,48.67
2018-01-11T20:55:37.558Z,49.10
2018-01-11T20:58:09.489Z,48.55
2018-01-11T21:00:40.754Z,51.53
2018-01-11T21:03:08.831Z,47.50
2018-01-11T21:05:36.326Z,48.13
2018-01-11T21:08:05.458Z,49.05
2018-01-11T21:10:33.762Z,47.30
2018-01-11T21:13:03.944Z,48.40
2018-01-11T21:15:32.462Z,48.55
2018-01-11T21:18:01.174Z,47.30
2018-01-11T21:20:29.343Z,50.15
2018-01-11T21:22:58.246Z,47.03
2018-01-11T21:25:27.665Z,46.88
2018-01-11T21:27:57.902Z,45.30
2018-01-11T21:30:27.290Z,45.03
2018-01-11T21:32:58.374Z,46.95
2018-01-11T21:35:28.534Z,46.35
2018-01-11T21:37:56.596Z,50.47
2018-01-11T21:40:25.736Z,45.60
2018-01-11T21:42:55.998Z,48.90
2018-01-11T21:45:27.691Z,47.20
2018-01-11T21:47:55.722Z,47.78
2018-01-11T21:50:24.100Z,48.28
2018-01-11T21:52:54.995Z,50.42
2018-01-11T21:55:28.060Z,48.40
2018-01-11T21:57:57.035Z,48.30
2018-01-11T22:00:27.678Z,48.38
2018-01-11T22:02:56.966Z,50.10
2018-01-11T22:05:25.866Z,50.10
2018-01-11T22:07:53.524Z,54.00
2018-01-11T22:10:22.490Z,51.22
2018-01-11T22:12:51.586Z,53.55
2018-01-11T22:15:19.709Z,49.05
2018-01-11T22:17:50.973Z,49.70
2018-01-11T22:20:18.469Z,49.05
2018-01-11T22:22:51.250Z,53.72
2018-01-11T22:25:21.973Z,52.10
2018-01-11T22:27:52.740Z,51.03
2018-01-11T22:30:20.920Z,50.00
2018-01-11T22:32:48.633Z,51.20
2018-01-11T22:35:16.922Z,50.83
2018-01-11T22:37:47.072Z,49.40
2018-01-11T22:40:15.345Z,49.33
2018-01-11T22:42:44.182Z,49.75
2018-01-11T22:45:15.494Z,51.25
2018-01-11T22:47:45.144Z,51.03
2018-01-11T22:50:13.954Z,51.00
2018-01-11T22:52:42.926Z,49.03
2018-01-11T22:55:10.772Z,52.53
2018-01-11T22:57:39.840Z,46.03
2018-01-11T23:00:09.578Z,47.15
2018-01-11T23:02:37.866Z,45.72
2018-01-11T23:05:06.914Z,44.97
2018-01-11T23:07:35.362Z,47.08
2018-01-11T23:10:05.890Z,47.90
2018-01-11T23:15:11.044Z,48.20
2018-01-11T23:17:49.850Z,50.88
2018-01-11T23:20:20.486Z,45.58
2018-01-11T23:22:49.435Z,44.97
2018-01-11T23:25:23.648Z,42.28
2018-01-11T23:27:53.874Z,42.40
2018-01-11T23:30:21.448Z,43.05
2018-01-11T23:32:48.954Z,45.00
2018-01-11T23:35:17.916Z,42.53
2018-01-11T23:37:46.286Z,45.47
2018-01-11T23:40:13.777Z,44.60
2018-01-11T23:42:41.279Z,43.85
2018-01-11T23:45:08.792Z,47.78
2018-01-11T23:47:39.878Z,43.15
2018-01-11T23:50:08.848Z,47.10
2018-01-11T23:52:37.040Z,46.37
2018-01-11T23:55:05.434Z,46.00
2018-01-11T23:57:34.165Z,48.30
